Time;durP1;ratioP1;P1;durP2;ratioP2;P2;SDS_P1;SDS_P2;PMS_P1;PMS_P2;Temp;Humidity;BMP_temperature;BMP_pressure;BME280_temperature;BME280_humidity;BME280_pressure;Samples;Min_cycle;Max_cycle;Signal;HPM_P1;HPM_P2
2021/03/12 12:57:22;;;;;;;6.72;1.27;;;;;;;;;;5133014;27;20310;-78
2021/03/12 12:59:48;;;;;;;8.68;1.45;;;;;;;;;;5135684;28;20503;-78
2021/03/12 13:02:14;;;;;;;3.70;1.00;;;;;;;;;;5131957;28;20038;-79
2021/03/12 13:04:40;;;;;;;5.47;1.08;;;;;;;;;;5132264;28;20027;-78
2021/03/12 13:07:06;;;;;;;3.78;1.00;;;;;;;;;;5131628;28;20039;-79
2021/03/12 13:09:33;;;;;;;5.25;0.80;;;;;;;;;;5133885;27;20035;-79
2021/03/12 13:11:59;;;;;;;7.28;1.48;;;;;;;;;;5117918;28;20043;-79
2021/03/12 13:14:25;;;;;;;5.10;1.25;;;;;;;;;;5116367;28;20092;-78
2021/03/12 13:16:51;;;;;;;6.85;1.65;;;;;;;;;;5135785;28;20028;-79
2021/03/12 13:19:17;;;;;;;6.03;1.08;;;;;;;;;;5116703;28;20034;-78
2021/03/12 13:21:43;;;;;;;3.75;1.05;;;;;;;;;;5111563;28;20016;-78
2021/03/12 13:24:09;;;;;;;5.13;0.95;;;;;;;;;;5109963;28;20518;-78
2021/03/12 13:26:35;;;;;;;8.40;0.85;;;;;;;;;;5127195;28;20032;-78
2021/03/12 13:29:01;;;;;;;5.10;1.00;;;;;;;;;;5128409;27;20034;-78
2021/03/12 13:31:27;;;;;;;6.18;1.05;;;;;;;;;;5128045;28;20039;-79
2021/03/12 13:33:53;;;;;;;4.18;1.00;;;;;;;;;;5127712;28;20507;-78
2021/03/12 13:36:19;;;;;;;5.57;1.00;;;;;;;;;;5133872;28;20024;-78
2021/03/12 13:38:45;;;;;;;6.25;1.20;;;;;;;;;;5130822;28;20024;-78
2021/03/12 13:41:12;;;;;;;6.72;0.98;;;;;;;;;;5134334;28;20023;-78
2021/03/12 13:43:39;;;;;;;3.85;0.93;;;;;;;;;;5134406;27;20015;-78
2021/03/12 13:46:05;;;;;;;4.18;1.48;;;;;;;;;;5136814;27;20027;-78
2021/03/12 13:48:31;;;;;;;4.32;1.00;;;;;;;;;;5129033;28;20038;-76
2021/03/12 13:50:57;;;;;;;7.72;1.45;;;;;;;;;;5127626;27;20032;-77
2021/03/12 13:53:23;;;;;;;4.20;0.90;;;;;;;;;;5132059;28;20034;-78
2021/03/12 13:55:49;;;;;;;2.75;0.85;;;;;;;;;;5129930;27;20024;-78
2021/03/12 13:58:17;;;;;;;3.90;0.93;;;;;;;;;;5128727;28;20015;-79
2021/03/12 14:00:43;;;;;;;4.60;0.73;;;;;;;;;;5134297;27;20020;-79
2021/03/12 14:03:09;;;;;;;9.25;1.30;;;;;;;;;;5131274;27;20023;-80
2021/03/12 14:05:36;;;;;;;4.45;1.00;;;;;;;;;;5132123;28;20507;-78
2021/03/12 14:08:02;;;;;;;6.57;1.17;;;;;;;;;;5120855;27;20126;-79
2021/03/12 14:10:28;;;;;;;4.78;1.13;;;;;;;;;;5126510;28;20031;-80
2021/03/12 14:12:54;;;;;;;3.95;1.35;;;;;;;;;;5119820;28;20032;-80
2021/03/12 14:15:20;;;;;;;3.25;0.70;;;;;;;;;;5108490;28;20031;-81
2021/03/12 14:17:46;;;;;;;3.88;0.90;;;;;;;;;;5109766;28;20023;-80
2021/03/12 14:20:12;;;;;;;3.05;0.70;;;;;;;;;;5127793;28;20023;-80
2021/03/12 14:22:38;;;;;;;7.88;1.40;;;;;;;;;;5124460;28;20039;-80
2021/03/12 14:25:05;;;;;;;3.95;0.73;;;;;;;;;;5102666;28;20024;-81
2021/03/12 14:27:31;;;;;;;4.30;0.73;;;;;;;;;;5125700;28;20038;-80
2021/03/12 14:29:57;;;;;;;4.05;0.90;;;;;;;;;;5126107;28;20985;-80
2021/03/12 14:32:23;;;;;;;6.22;1.10;;;;;;;;;;5124824;28;20024;-80
2021/03/12 14:34:49;;;;;;;5.03;1.05;;;;;;;;;;5120891;28;20015;-80
2021/03/12 14:37:15;;;;;;;4.78;0.85;;;;;;;;;;5126640;28;20061;-80
2021/03/12 14:39:41;;;;;;;4.05;0.95;;;;;;;;;;5127717;28;20027;-80
2021/03/12 14:42:07;;;;;;;4.60;1.00;;;;;;;;;;5109660;28;20411;-81
2021/03/12 14:44:33;;;;;;;3.75;1.05;;;;;;;;;;5121613;28;20095;-80
2021/03/12 14:47:00;;;;;;;3.78;0.77;;;;;;;;;;5129255;28;20057;-80
2021/03/12 14:49:26;;;;;;;2.33;0.60;;;;;;;;;;5126213;28;20095;-80
2021/03/12 14:51:52;;;;;;;4.03;0.85;;;;;;;;;;5107279;28;20028;-81
2021/03/12 14:54:18;;;;;;;2.28;0.77;;;;;;;;;;5124818;28;20085;-80
2021/03/12 14:56:46;;;;;;;4.70;0.95;;;;;;;;;;5104747;28;20107;-80
2021/03/12 14:59:12;;;;;;;6.68;1.05;;;;;;;;;;5123273;28;20098;-79
2021/03/12 15:01:38;;;;;;;2.60;0.73;;;;;;;;;;5115430;28;20054;-80
2021/03/12 15:04:04;;;;;;;5.90;1.30;;;;;;;;;;5120924;28;20066;-79
2021/03/12 15:06:31;;;;;;;5.80;1.00;;;;;;;;;;5119778;28;20063;-79
2021/03/12 15:08:58;;;;;;;6.10;2.00;;;;;;;;;;5119856;28;20476;-79
2021/03/12 15:11:24;;;;;;;8.45;0.98;;;;;;;;;;5121249;28;20041;-79
2021/03/12 15:13:50;;;;;;;5.85;0.85;;;;;;;;;;5120211;28;20107;-79
2021/03/12 15:16:16;;;;;;;4.60;0.82;;;;;;;;;;5119841;28;20076;-79
2021/03/12 15:18:42;;;;;;;4.43;1.20;;;;;;;;;;5117752;28;20068;-79
2021/03/12 15:21:08;;;;;;;3.88;1.10;;;;;;;;;;5113850;28;20019;-79
2021/03/12 15:23:34;;;;;;;5.53;0.80;;;;;;;;;;5117849;28;20240;-79
2021/03/12 15:26:00;;;;;;;5.53;1.52;;;;;;;;;;5114266;28;20022;-78
2021/03/12 15:28:26;;;;;;;4.85;1.65;;;;;;;;;;5114107;28;20034;-79
2021/03/12 15:30:52;;;;;;;5.07;0.85;;;;;;;;;;5098891;28;20054;-78
2021/03/12 15:33:18;;;;;;;5.65;1.15;;;;;;;;;;5098540;28;20024;-77
2021/03/12 15:35:44;;;;;;;3.67;0.93;;;;;;;;;;5098557;28;20028;-78
2021/03/12 15:38:10;;;;;;;3.75;0.68;;;;;;;;;;5109553;28;20031;-78
2021/03/12 15:40:36;;;;;;;2.70;0.70;;;;;;;;;;5110275;28;20042;-77
2021/03/12 15:43:02;;;;;;;3.45;0.73;;;;;;;;;;5097193;28;20023;-78
2021/03/12 15:45:28;;;;;;;2.42;0.95;;;;;;;;;;5099489;28;20039;-78
2021/03/12 15:47:54;;;;;;;7.15;0.70;;;;;;;;;;5099676;28;20024;-80
2021/03/12 15:50:22;;;;;;;2.40;0.80;;;;;;;;;;5104844;28;20020;-80
2021/03/12 15:52:48;;;;;;;5.47;0.80;;;;;;;;;;5094471;28;20020;-80
2021/03/12 15:55:14;;;;;;;3.05;0.80;;;;;;;;;;5092435;28;20043;-81
2021/03/12 15:57:42;;;;;;;3.67;0.73;;;;;;;;;;5097017;28;20046;-80
2021/03/12 16:00:10;;;;;;;4.30;0.77;;;;;;;;;;5104604;28;20081;-77
2021/03/12 16:02:40;;;;;;;5.97;0.88;;;;;;;;;;5101295;28;20087;-79
2021/03/12 16:05:07;;;;;;;6.82;1.15;;;;;;;;;;5111038;28;20028;-80
2021/03/12 16:07:33;;;;;;;5.18;0.93;;;;;;;;;;5111728;28;20024;-80
2021/03/12 16:09:59;;;;;;;4.35;0.80;;;;;;;;;;5107424;28;20028;-81
2021/03/12 16:12:25;;;;;;;5.35;1.15;;;;;;;;;;5105417;28;20160;-80
2021/03/12 16:14:51;;;;;;;4.70;0.90;;;;;;;;;;5094577;28;20016;-81
2021/03/12 16:17:17;;;;;;;3.35;0.80;;;;;;;;;;5094723;28;20035;-82
2021/03/12 16:19:43;;;;;;;4.53;0.70;;;;;;;;;;5112823;28;20019;-81
2021/03/12 16:22:09;;;;;;;4.88;1.25;;;;;;;;;;5113500;28;20026;-82
2021/03/12 16:24:35;;;;;;;3.45;0.95;;;;;;;;;;5110407;28;20020;-80
2021/03/12 16:27:03;;;;;;;5.95;1.20;;;;;;;;;;5092020;28;20122;-78
2021/03/12 16:29:30;;;;;;;4.97;1.02;;;;;;;;;;5100055;28;20019;-74
2021/03/12 16:31:56;;;;;;;3.42;1.00;;;;;;;;;;5106923;28;20116;-76
2021/03/12 16:34:22;;;;;;;7.32;0.90;;;;;;;;;;5107466;28;20399;-76
2021/03/12 16:36:48;;;;;;;5.03;0.77;;;;;;;;;;5109537;28;20028;-80
2021/03/12 16:39:14;;;;;;;8.10;1.05;;;;;;;;;;5106405;28;20040;-78
2021/03/12 16:41:41;;;;;;;4.60;1.10;;;;;;;;;;5107216;28;20063;-79
2021/03/12 16:44:07;;;;;;;4.03;1.33;;;;;;;;;;5111112;28;20107;-78
2021/03/12 16:46:33;;;;;;;5.68;0.93;;;;;;;;;;5101784;28;20110;-79
2021/03/12 16:49:00;;;;;;;6.55;0.80;;;;;;;;;;5082200;28;20023;-78
2021/03/12 16:51:26;;;;;;;5.20;0.80;;;;;;;;;;5109015;28;20019;-78
2021/03/12 16:53:52;;;;;;;3.67;0.90;;;;;;;;;;5107569;28;20179;-78
2021/03/12 16:56:19;;;;;;;5.93;0.93;;;;;;;;;;5106527;28;20042;-78
2021/03/12 16:58:45;;;;;;;6.43;0.95;;;;;;;;;;5086818;28;20016;-78
2021/03/12 17:01:11;;;;;;;4.82;1.00;;;;;;;;;;5088066;28;20024;-78
2021/03/12 17:03:40;;;;;;;11.82;1.20;;;;;;;;;;5089517;28;20020;-78
2021/03/12 17:06:06;;;;;;;2.38;0.77;;;;;;;;;;5089861;28;20026;-78
2021/03/12 17:08:32;;;;;;;5.93;0.82;;;;;;;;;;5090810;28;20052;-77
2021/03/12 17:10:58;;;;;;;5.63;0.98;;;;;;;;;;5096293;28;20028;-77
2021/03/12 17:13:25;;;;;;;3.15;0.68;;;;;;;;;;5106622;28;20031;-77
2021/03/12 17:15:50;;;;;;;6.18;0.80;;;;;;;;;;5106698;28;20115;-77
2021/03/12 17:18:17;;;;;;;2.72;0.80;;;;;;;;;;5107299;28;20465;-76
2021/03/12 17:20:43;;;;;;;6.18;1.20;;;;;;;;;;5108039;28;20027;-77
2021/03/12 17:23:09;;;;;;;5.50;0.82;;;;;;;;;;5110173;28;20094;-78
2021/03/12 17:25:35;;;;;;;3.42;0.85;;;;;;;;;;5110199;28;20085;-76
2021/03/12 17:28:01;;;;;;;5.65;0.70;;;;;;;;;;5107889;28;20050;-77
2021/03/12 17:30:28;;;;;;;5.38;0.93;;;;;;;;;;5106726;28;20020;-77
2021/03/12 17:32:54;;;;;;;4.53;0.82;;;;;;;;;;5099202;28;20122;-76
2021/03/12 17:35:20;;;;;;;4.03;1.05;;;;;;;;;;5087849;28;20036;-77
2021/03/12 17:37:46;;;;;;;4.43;0.85;;;;;;;;;;5086598;28;20028;-77
2021/03/12 17:40:14;;;;;;;7.28;1.42;;;;;;;;;;5107725;28;20026;-76
2021/03/12 17:42:40;;;;;;;4.55;1.00;;;;;;;;;;5107449;28;20104;-77
2021/03/12 17:45:07;;;;;;;4.47;1.40;;;;;;;;;;5110829;28;20488;-77
2021/03/12 17:47:34;;;;;;;4.65;1.10;;;;;;;;;;5111837;28;20641;-78
2021/03/12 17:50:00;;;;;;;5.80;0.90;;;;;;;;;;5111262;28;20020;-77
2021/03/12 17:52:26;;;;;;;5.20;1.00;;;;;;;;;;5108952;28;20034;-77
2021/03/12 17:54:52;;;;;;;4.45;1.20;;;;;;;;;;5111218;28;20027;-78
2021/03/12 17:57:19;;;;;;;6.55;1.05;;;;;;;;;;5111915;28;20051;-77
2021/03/12 17:59:45;;;;;;;4.82;1.15;;;;;;;;;;5111147;28;20402;-77
2021/03/12 18:02:11;;;;;;;6.53;0.88;;;;;;;;;;5108493;28;20114;-77
2021/03/12 18:04:37;;;;;;;6.43;0.70;;;;;;;;;;5091856;28;20024;-78
2021/03/12 18:07:03;;;;;;;7.20;0.93;;;;;;;;;;5092437;28;20039;-77
2021/03/12 18:09:29;;;;;;;2.60;0.38;;;;;;;;;;5102817;28;20435;-80
2021/03/12 18:11:55;;;;;;;5.47;1.23;;;;;;;;;;5112379;28;20118;-79
2021/03/12 18:14:21;;;;;;;5.07;1.50;;;;;;;;;;5113510;28;20032;-81
2021/03/12 18:16:47;;;;;;;2.75;0.75;;;;;;;;;;5114567;28;20080;-81
2021/03/12 18:19:13;;;;;;;3.53;0.70;;;;;;;;;;5113543;28;20023;-78
2021/03/12 18:21:39;;;;;;;5.53;0.90;;;;;;;;;;5095540;28;20173;-79
2021/03/12 18:24:05;;;;;;;3.85;1.10;;;;;;;;;;5114510;28;20036;-80
2021/03/12 18:26:32;;;;;;;2.75;0.63;;;;;;;;;;5112993;28;20651;-79
2021/03/12 18:28:58;;;;;;;4.93;1.10;;;;;;;;;;5113635;28;20502;-79
2021/03/12 18:31:24;;;;;;;4.85;0.88;;;;;;;;;;5111597;28;20028;-81
2021/03/12 18:33:50;;;;;;;4.28;1.25;;;;;;;;;;5113770;28;20027;-79
2021/03/12 18:36:16;;;;;;;5.45;1.20;;;;;;;;;;5110627;28;20070;-81
2021/03/12 18:38:42;;;;;;;2.58;0.60;;;;;;;;;;5097374;28;20024;-78
2021/03/12 18:41:08;;;;;;;5.55;1.05;;;;;;;;;;5092243;28;20020;-78
2021/03/12 18:43:34;;;;;;;4.55;1.00;;;;;;;;;;5092557;28;20023;-79
2021/03/12 18:46:01;;;;;;;2.80;0.85;;;;;;;;;;5092138;28;20070;-79
2021/03/12 18:48:27;;;;;;;2.97;0.60;;;;;;;;;;5093787;28;20568;-78
2021/03/12 18:50:53;;;;;;;3.03;0.68;;;;;;;;;;5106725;28;20015;-78
2021/03/12 18:53:19;;;;;;;3.22;0.68;;;;;;;;;;5114014;28;20028;-79
